createdAt,value
2022-08-28T00:00:07.220Z,102
2022-08-28T00:05:47.657Z,98
2022-08-28T00:22:57.531Z,96
2022-08-28T00:28:38.112Z,96
2022-08-28T00:34:33.818Z,90
2022-08-28T00:40:14.964Z,100
2022-08-28T00:45:56.519Z,96
2022-08-28T00:51:36.801Z,108
2022-08-28T00:57:19.616Z,92
2022-08-28T01:03:02.353Z,100
2022-08-28T01:08:50.829Z,98
2022-08-28T01:14:31.555Z,100
2022-08-28T01:20:11.513Z,94
2022-08-28T01:25:51.819Z,88
2022-08-28T01:31:32.560Z,104
2022-08-28T01:37:12.959Z,108
2022-08-28T01:42:53.184Z,98
2022-08-28T01:48:33.253Z,104
2022-08-28T01:54:13.522Z,98
2022-08-28T01:59:53.630Z,100
2022-08-28T02:16:53.958Z,98
2022-08-28T02:22:34.231Z,94
2022-08-28T02:28:15.157Z,94
2022-08-28T02:33:55.918Z,100
2022-08-28T02:39:36.022Z,88
2022-08-28T02:45:16.205Z,94
2022-08-28T02:50:56.365Z,100
2022-08-28T02:56:36.555Z,110
2022-08-28T03:02:17.748Z,96
2022-08-28T03:07:58.176Z,100
2022-08-28T03:13:38.251Z,98
2022-08-28T03:19:18.446Z,96
2022-08-28T03:24:58.527Z,104
2022-08-28T03:30:39.410Z,98
2022-08-28T03:36:20.714Z,94
2022-08-28T03:42:00.908Z,98
2022-08-28T03:55:11.302Z,98
2022-08-28T04:00:51.510Z,98
2022-08-28T04:06:31.532Z,92
2022-08-28T04:12:11.711Z,102
2022-08-28T04:17:51.669Z,94
2022-08-28T04:23:34.047Z,100
2022-08-28T04:29:14.139Z,94
2022-08-28T04:34:54.028Z,104
2022-08-28T04:40:44.590Z,104
2022-08-28T04:46:24.845Z,90
2022-08-28T04:52:11.049Z,106
2022-08-28T04:57:54.450Z,104
2022-08-28T05:03:34.755Z,92
2022-08-28T05:09:14.939Z,86
2022-08-28T05:14:55.080Z,102
2022-08-28T05:20:35.652Z,100
2022-08-28T05:26:15.861Z,106
2022-08-28T05:31:56.729Z,94
2022-08-28T05:37:37.239Z,88
2022-08-28T05:54:38.633Z,102
2022-08-28T06:00:18.947Z,104
2022-08-28T06:05:59.436Z,92
2022-08-28T06:11:46.871Z,104
2022-08-28T06:17:28.122Z,96
2022-08-28T06:23:08.264Z,104
2022-08-28T06:28:49.531Z,96
2022-08-28T06:34:29.933Z,104
2022-08-28T06:40:10.861Z,94
2022-08-28T06:45:51.696Z,106
2022-08-28T06:51:31.774Z,100
2022-08-28T06:57:12.083Z,98
2022-08-28T07:02:53.042Z,98
2022-08-28T07:08:33.345Z,112
2022-08-28T07:14:14.067Z,106
2022-08-28T07:20:00.523Z,104
2022-08-28T07:25:42.837Z,102
2022-08-28T07:31:23.779Z,100
2022-08-28T07:48:27.074Z,104
2022-08-28T07:54:18.791Z,100
2022-08-28T07:59:58.751Z,102
2022-08-28T08:05:39.966Z,50
2022-08-28T08:11:20.353Z,48
2022-08-28T08:17:07.986Z,44
2022-08-28T08:22:48.345Z,66
2022-08-28T08:28:28.731Z,40
2022-08-28T08:34:13.109Z,40
2022-08-28T08:39:54.733Z,0
2022-08-28T08:45:35.626Z,2
2022-08-28T08:51:16.075Z,0
2022-08-28T09:01:57.773Z,2
2022-08-28T09:07:38.072Z,74
2022-08-28T09:13:21.376Z,2
2022-08-28T09:19:01.599Z,0
2022-08-28T09:24:41.424Z,0
2022-08-28T09:30:22.700Z,2
2022-08-28T09:41:42.926Z,0
2022-08-28T09:47:23.630Z,4
2022-08-28T09:53:05.725Z,0
2022-08-28T09:58:46.678Z,4
2022-08-28T10:04:34.104Z,8
2022-08-28T10:10:18.399Z,2
2022-08-28T10:16:01.820Z,4
2022-08-28T10:21:42.473Z,4
2022-08-28T10:27:22.969Z,0
2022-08-28T10:33:13.250Z,2
2022-08-28T10:38:53.912Z,2
2022-08-28T10:44:41.049Z,0
2022-08-28T10:50:26.853Z,2
2022-08-28T10:56:07.259Z,0
2022-08-28T11:01:48.345Z,2
2022-08-28T11:07:28.942Z,2
2022-08-28T11:13:09.624Z,0
2022-08-28T11:18:49.723Z,0
2022-08-28T11:24:31.121Z,0
2022-08-28T11:30:11.482Z,0
2022-08-28T11:35:51.733Z,2
2022-08-28T11:41:32.514Z,0
2022-08-28T11:47:16.309Z,2
2022-08-28T11:52:56.795Z,8
2022-08-28T11:58:39.856Z,2
2022-08-28T12:15:46.995Z,0
2022-08-28T12:21:27.798Z,6
2022-08-28T12:27:08.167Z,2
2022-08-28T12:32:48.715Z,0
2022-08-28T12:38:29.175Z,4
2022-08-28T12:44:09.640Z,0
2022-08-28T12:49:50.843Z,0
2022-08-28T12:55:31.325Z,0
2022-08-28T13:01:13.383Z,0
2022-08-28T13:06:53.988Z,0
2022-08-28T13:13:06.384Z,0
2022-08-28T13:18:46.689Z,0
2022-08-28T13:24:36.426Z,8
2022-08-28T13:30:16.942Z,0
2022-08-28T13:35:57.182Z,0
2022-08-28T13:41:38.025Z,0
2022-08-28T13:58:58.860Z,0
2022-08-28T14:04:50.749Z,0
2022-08-28T14:10:46.433Z,0
2022-08-28T14:16:40.766Z,0
2022-08-28T14:22:20.974Z,86
2022-08-28T14:28:00.841Z,78
2022-08-28T14:33:47.237Z,98
2022-08-28T14:39:27.505Z,100
2022-08-28T14:45:07.610Z,92
2022-08-28T14:50:48.666Z,94
2022-08-28T14:56:32.308Z,98
2022-08-28T15:02:12.248Z,84
2022-08-28T15:07:52.232Z,90
2022-08-28T15:13:32.490Z,94
2022-08-28T15:19:13.027Z,94
2022-08-28T15:30:36.134Z,90
2022-08-28T15:36:16.176Z,92
2022-08-28T15:41:56.511Z,94
2022-08-28T15:47:36.963Z,86
2022-08-28T15:53:18.738Z,100
2022-08-28T15:58:59.218Z,90
2022-08-28T16:04:39.316Z,90
2022-08-28T16:10:19.728Z,94
2022-08-28T16:16:00.749Z,74
2022-08-28T16:21:40.779Z,80
2022-08-28T16:27:21.862Z,90
2022-08-28T16:33:01.803Z,74
2022-08-28T16:38:42.315Z,94
2022-08-28T16:44:22.339Z,82
2022-08-28T16:50:02.685Z,90
2022-08-28T16:55:42.826Z,80
2022-08-28T17:01:25.437Z,88
2022-08-28T17:07:05.747Z,96
2022-08-28T17:24:06.222Z,144
2022-08-28T17:29:47.041Z,78
2022-08-28T17:35:27.171Z,92
2022-08-28T17:41:07.431Z,86
2022-08-28T17:46:48.409Z,80
2022-08-28T17:52:28.676Z,72
2022-08-28T17:58:08.623Z,92
2022-08-28T18:03:54.313Z,88
2022-08-28T18:09:34.534Z,78
2022-08-28T18:15:14.899Z,86
2022-08-28T18:20:55.420Z,92
2022-08-28T18:26:35.538Z,90
2022-08-28T18:32:17.691Z,80
2022-08-28T18:37:57.837Z,78
2022-08-28T18:43:43.018Z,70
2022-08-28T18:49:23.153Z,84
2022-08-28T18:55:06.310Z,84
2022-08-28T19:00:48.914Z,72
2022-08-28T19:17:55.347Z,72
2022-08-28T19:23:39.795Z,74
2022-08-28T19:29:33.729Z,96
2022-08-28T19:35:13.859Z,76
2022-08-28T19:40:56.396Z,82
2022-08-28T19:46:37.405Z,84
2022-08-28T19:52:24.044Z,102
2022-08-28T19:58:11.909Z,88
2022-08-28T20:03:52.337Z,106
2022-08-28T20:09:32.713Z,74
2022-08-28T20:15:18.171Z,68
2022-08-28T20:20:58.737Z,90
2022-08-28T20:26:42.267Z,98
2022-08-28T20:32:23.702Z,90
2022-08-28T20:38:04.133Z,84
2022-08-28T20:43:47.095Z,64
2022-08-28T21:01:01.195Z,72
2022-08-28T21:06:43.263Z,76
2022-08-28T21:12:28.533Z,86
2022-08-28T21:18:14.494Z,66
2022-08-28T21:23:57.987Z,110
2022-08-28T21:29:38.587Z,120
2022-08-28T21:35:21.855Z,100
2022-08-28T21:41:05.275Z,104
2022-08-28T21:46:45.608Z,104
2022-08-28T21:52:25.973Z,106
2022-08-28T21:58:05.903Z,94
2022-08-28T22:03:46.420Z,94
2022-08-28T22:09:26.733Z,106
2022-08-28T22:15:06.816Z,78
2022-08-28T22:20:46.906Z,98
2022-08-28T22:26:27.129Z,90
2022-08-28T22:32:08.400Z,96
2022-08-28T22:38:03.653Z,80
2022-08-28T22:49:24.554Z,104
2022-08-28T22:55:09.140Z,92
2022-08-28T23:00:49.568Z,100
2022-08-28T23:06:33.112Z,106
2022-08-28T23:12:13.397Z,98
2022-08-28T23:17:54.293Z,98
2022-08-28T23:23:34.809Z,100
2022-08-28T23:29:15.599Z,104
2022-08-28T23:34:56.099Z,96
2022-08-28T23:40:37.198Z,94
2022-08-28T23:46:18.870Z,96
2022-08-28T23:52:00.178Z,96
2022-08-28T23:57:40.514Z,92
